MSC Nuria — 3ESE2 — position and weather

sailwx.info

Track history (hours):
 
Tides and Currents Weather Stations Pressure Air Temp Water Temp Dewpoint Dewpoint Depression Visibility Wind Speed Wind Dir Waves Ship Positions

MSC Nuria

Last reported at 2014-Sep-30 19:29 UTC. Time now 2014-Sep-30 20:01 UTC.
Position N 53°35' E 008°32'.

Length 275 m; draft 10 m.

Type: Ship (hazmat cat A). MMSI: 370272977.

Date/timePositionNaut miles runAvg speedWind from/ knotsBaromVisibWave heightAir tempDewpointWater temp
2014-Sep-30 19:29N 53°35' E 008°32'0 0.0
2014-Sep-30 18:31N 53°35' E 008°32'0 0.0
2014-Sep-30 17:31N 53°35' E 008°32'0 0.0
2014-Sep-30 16:33N 53°35' E 008°32'0 0.0
2014-Sep-30 15:33N 53°35' E 008°32'0 0.0
2014-Sep-30 14:32N 53°35' E 008°32'0 0.0
2014-Sep-30 13:32N 53°35' E 008°32'0 0.0
2014-Sep-30 12:32N 53°35' E 008°32'0 0.0
2014-Sep-30 11:31N 53°35' E 008°32'0 0.0
2014-Sep-30 10:31N 53°35' E 008°32'0 0.0
2014-Sep-30 09:33N 53°35' E 008°32'0 0.0
2014-Sep-30 08:31N 53°35' E 008°32'0 0.0
2014-Sep-30 07:33N 53°35' E 008°32'0 0.0
2014-Sep-30 06:33N 53°35' E 008°32'0 0.0
2014-Sep-30 05:32N 53°35' E 008°32'0 0.0
2014-Sep-30 04:32N 53°35' E 008°32'0 0.0
2014-Sep-30 03:32N 53°35' E 008°32'0 0.0
2014-Sep-30 02:31N 53°35' E 008°32'0 0.0
2014-Sep-30 01:33N 53°35' E 008°32'7 7.2
2014-Sep-30 00:34N 53°40' E 008°23'1918.6
2014-Sep-29 23:33N 53°51' E 007°58'5718.9
2014-Sep-29 20:31N 53°46' E 006°22'2020.8
2014-Sep-29 19:33N 53°39' E 005°50'2120.6
2014-Sep-29 18:33N 53°32' E 005°18'2020.4
2014-Sep-29 17:33N 53°25' E 004°46'4720.2
2014-Sep-29 15:13N 52°44' E 004°05'3118.8
2014-Sep-29 13:34N 52°20' E 003°32'2019.5
2014-Sep-29 12:32N 52°01' E 003°23'1717.6
2014-Sep-29 11:33N 51°45' E 003°14'1414.4
2014-Sep-29 10:33N 51°31' E 003°06'8 8.4
2014-Sep-29 09:33N 51°25' E 003°14'1615.8
2014-Sep-29 08:33N 51°27' E 003°39'1211.7
2014-Sep-29 07:33N 51°25' E 003°58'1010.0
2014-Sep-29 06:34N 51°22' E 004°13'3 3.0
2014-Sep-29 05:34N 51°21' E 004°17'2 1.6
2014-Sep-29 04:33N 51°19' E 004°19'0 0.1
2014-Sep-29 03:33N 51°19' E 004°19'0 0.0
2014-Sep-29 02:30N 51°19' E 004°19'0 0.0
2014-Sep-29 01:32N 51°19' E 004°19'0 0.0
2014-Sep-29 00:29N 51°19' E 004°19'0 0.0
2014-Sep-28 23:31N 51°19' E 004°19'0 0.0
2014-Sep-28 22:28N 51°19' E 004°19'0 0.0
2014-Sep-28 21:33N 51°19' E 004°19'0 0.0
2014-Sep-28 20:33N 51°19' E 004°19'0 0.0
2014-Sep-28 19:33N 51°19' E 004°19'0 0.0
2014-Sep-28 18:32N 51°19' E 004°19'0 0.0
2014-Sep-28 17:29N 51°19' E 004°19'0 0.0
2014-Sep-28 16:31N 51°19' E 004°19'0 0.0
2014-Sep-28 15:31N 51°19' E 004°19'0 0.0
2014-Sep-28 14:33N 51°19' E 004°19'0 0.0
2014-Sep-28 13:33N 51°19' E 004°19'0 0.0
2014-Sep-28 12:28N 51°19' E 004°19'0 0.0
2014-Sep-28 11:33N 51°19' E 004°19'0 0.0
2014-Sep-28 10:33N 51°19' E 004°19'0 0.0
2014-Sep-28 09:33N 51°19' E 004°19'0 0.0
2014-Sep-28 08:32N 51°19' E 004°19'0 0.0
2014-Sep-28 07:32N 51°19' E 004°19'0 0.0
2014-Sep-28 06:31N 51°19' E 004°19'0 0.0
2014-Sep-28 05:31N 51°19' E 004°19'0 0.0
2014-Sep-28 04:30N 51°19' E 004°19'0 0.0
2014-Sep-28 03:33N 51°19' E 004°19'0 0.0
2014-Sep-28 02:33N 51°19' E 004°19'2 1.7
2014-Sep-28 01:34N 51°21' E 004°17'0 0.3
2014-Sep-28 00:34N 51°21' E 004°17'7 7.2
2014-Sep-27 23:33N 51°22' E 004°06'7 7.4
2014-Sep-27 22:33N 51°21' E 003°54'1110.8
2014-Sep-27 21:33N 51°26' E 003°38'1212.4
2014-Sep-27 20:33N 51°24' E 003°18'1515.0
2014-Sep-27 19:33N 51°25' E 002°54'9 9.1
2014-Sep-27 18:33N 51°27' E 002°40'2 1.8
2014-Sep-27 17:33N 51°27' E 002°37'7 7.1
2014-Sep-27 16:33N 51°22' E 002°30'7 7.1
2014-Sep-27 15:33N 51°19' E 002°20'8 8.3
2014-Sep-27 14:33N 51°14' E 002°09'1414.5
2014-Sep-27 13:33N 51°07' E 001°49'1515.5
2014-Sep-27 12:33N 50°56' E 001°32'1413.9
2014-Sep-27 11:33N 50°44' E 001°22'1413.5
2014-Sep-27 10:33N 50°35' E 001°06'1413.6
2014-Sep-27 09:33N 50°28' E 000°48'1414.3
2014-Sep-27 08:33N 50°23' E 000°27'4112.8
2014-Sep-27 05:20N 49°48' W 000°08'1114.4
2014-Sep-27 04:33N 49°37' W 000°11'1212.1
2014-Sep-27 03:34N 49°30' E 000°03'4 3.6
2014-Sep-27 02:32N 49°28' E 000°08'0 0.0
2014-Sep-27 01:28N 49°28' E 000°08'0 0.0
2014-Sep-27 00:31N 49°28' E 000°08'0 0.0
2014-Sep-26 23:30N 49°28' E 000°08'0 0.0
2014-Sep-26 22:30N 49°28' E 000°08'0 0.0
2014-Sep-26 21:29N 49°28' E 000°08'0 0.0
2014-Sep-26 20:29N 49°28' E 000°08'0 0.0
2014-Sep-26 19:32N 49°28' E 000°08'0 0.0
2014-Sep-26 18:28N 49°28' E 000°08'0 0.0
2014-Sep-26 17:28N 49°28' E 000°08'0 0.0
2014-Sep-26 16:33N 49°28' E 000°08'0 0.0
2014-Sep-26 15:33N 49°28' E 000°08'0 0.0
2014-Sep-26 14:32N 49°28' E 000°08'0 0.0
2014-Sep-26 13:32N 49°28' E 000°08'0 0.0
2014-Sep-26 12:31N 49°28' E 000°08'0 0.0
2014-Sep-26 11:31N 49°28' E 000°08'0 0.0
2014-Sep-26 10:31N 49°28' E 000°08'0 0.2
2014-Sep-26 09:33N 49°28' E 000°08'1010.5
2014-Sep-26 08:33N 49°31' W 000°07'8 8.2
2014-Sep-26 07:33N 49°39' W 000°11'6 5.9
2014-Sep-26 06:32N 49°45' W 000°10'10 8.1
2014-Sep-26 05:19N 49°55' W 000°11'3211.2
2014-Sep-26 02:29N 50°26' W 000°03'1414.0
2014-Sep-26 01:31N 50°32' E 000°17'1313.5
2014-Sep-26 00:33N 50°35' E 000°37'1312.5
2014-Sep-25 23:33N 50°42' E 000°53'1212.0
2014-Sep-25 22:33N 50°50' E 001°08'1413.5
2014-Sep-25 21:32N 50°59' E 001°24'1818.3
2014-Sep-25 20:34N 51°12' E 001°44'1918.9
2014-Sep-25 19:34N 51°28' E 001°59'1817.6
2014-Sep-25 18:34N 51°41' E 002°18'18615.3
2014-Sep-25 06:21N 54°25' E 004°45'22914.4
2014-Sep-24 14:30N 57°31' E 008°45'1314.1
2014-Sep-24 13:33N 57°39' E 009°05'1414.2
2014-Sep-24 12:33N 57°45' E 009°29'3414.0
2014-Sep-24 10:09N 57°50' E 010°31'913.2
2014-Sep-24 09:30N 57°48' E 010°47'1313.9
2014-Sep-24 08:33N 57°39' E 011°05'1413.9
2014-Sep-24 07:33N 57°29' E 011°24'1414.2
2014-Sep-24 06:34N 57°16' E 011°33'1414.3
2014-Sep-24 05:33N 57°03' E 011°43'1413.7
2014-Sep-24 04:30N 56°49' E 011°53'1313.1
2014-Sep-24 03:33N 56°39' E 011°40'12215.3
2014-Sep-23 19:33N 54°40' E 010°49'1717.1
2014-Sep-23 18:33N 54°34' E 011°17'1818.2
2014-Sep-23 17:34N 54°27' E 011°45'1616.2
2014-Sep-23 16:34N 54°29' E 012°13'1414.3
2014-Sep-23 15:33N 54°41' E 012°28'1919.3
2014-Sep-23 14:33N 54°51' E 012°57'1918.8
2014-Sep-23 13:33N 54°51' E 013°29'2019.8
2014-Sep-23 12:33N 54°43' E 014°01'4618.6
2014-Sep-23 10:06N 54°50' E 015°19'1119.9
2014-Sep-23 09:33N 54°54' E 015°36'10119.1
2014-Sep-23 04:16N 55°25' E 018°25'53 1.6
2014-Sep-21 18:18N 55°12' E 019°56'1520.9
2014-Sep-21 17:34N 55°02' E 019°37'2120.9
2014-Sep-21 16:34N 54°47' E 019°11'2020.2
2014-Sep-21 15:34N 54°32' E 018°48'10 9.8
2014-Sep-21 14:33N 54°33' E 018°31'0 0.0
2014-Sep-21 13:33N 54°33' E 018°31'0 0.0
2014-Sep-21 12:32N 54°33' E 018°31'0 0.0
2014-Sep-21 11:32N 54°33' E 018°31'0 0.0
2014-Sep-21 10:31N 54°33' E 018°31'0 0.0
2014-Sep-21 09:31N 54°33' E 018°31'0 0.0
2014-Sep-21 08:31N 54°33' E 018°31'0 0.0
2014-Sep-21 07:33N 54°33' E 018°31'0 0.0
2014-Sep-21 06:31N 54°33' E 018°31'0 0.0
2014-Sep-21 05:31N 54°33' E 018°31'0 0.0
2014-Sep-21 04:33N 54°33' E 018°31'0 0.0
2014-Sep-21 03:33N 54°33' E 018°31'0 0.0
2014-Sep-21 02:32N 54°33' E 018°31'0 0.1
2014-Sep-21 01:32N 54°33' E 018°31'0 0.1
2014-Sep-21 00:32N 54°33' E 018°31'0 0.0
2014-Sep-20 23:31N 54°33' E 018°31'0 0.0
2014-Sep-20 22:31N 54°33' E 018°31'0 0.0
2014-Sep-20 21:33N 54°33' E 018°31'0 0.0
2014-Sep-20 20:33N 54°33' E 018°31'0 0.0
2014-Sep-20 19:32N 54°33' E 018°31'  
Track history (hours):
 
Tides and Currents Weather Stations Pressure Air Temp Water Temp Dewpoint Dewpoint Depression Visibility Wind Speed Wind Dir Waves Ship Positions

MSC Nuria

Last reported at 2014-Sep-30 19:29 UTC. Time now 2014-Sep-30 20:01 UTC.
Position N 53°35' E 008°32'.

Length 275 m; draft 10 m.

Type: Ship (hazmat cat A). MMSI: 370272977.

Date/timePositionNaut miles runAvg speedWind from/ knotsBaromVisibWave heightAir tempDewpointWater temp
2014-Sep-30 19:29N 53°35' E 008°32'0 0.0
2014-Sep-30 18:31N 53°35' E 008°32'0 0.0
2014-Sep-30 17:31N 53°35' E 008°32'0 0.0
2014-Sep-30 16:33N 53°35' E 008°32'0 0.0
2014-Sep-30 15:33N 53°35' E 008°32'0 0.0
2014-Sep-30 14:32N 53°35' E 008°32'0 0.0
2014-Sep-30 13:32N 53°35' E 008°32'0 0.0
2014-Sep-30 12:32N 53°35' E 008°32'0 0.0
2014-Sep-30 11:31N 53°35' E 008°32'0 0.0
2014-Sep-30 10:31N 53°35' E 008°32'0 0.0
2014-Sep-30 09:33N 53°35' E 008°32'0 0.0
2014-Sep-30 08:31N 53°35' E 008°32'0 0.0
2014-Sep-30 07:33N 53°35' E 008°32'0 0.0
2014-Sep-30 06:33N 53°35' E 008°32'0 0.0
2014-Sep-30 05:32N 53°35' E 008°32'0 0.0
2014-Sep-30 04:32N 53°35' E 008°32'0 0.0
2014-Sep-30 03:32N 53°35' E 008°32'0 0.0
2014-Sep-30 02:31N 53°35' E 008°32'0 0.0
2014-Sep-30 01:33N 53°35' E 008°32'7 7.2
2014-Sep-30 00:34N 53°40' E 008°23'1918.6
2014-Sep-29 23:33N 53°51' E 007°58'5718.9
2014-Sep-29 20:31N 53°46' E 006°22'2020.8
2014-Sep-29 19:33N 53°39' E 005°50'2120.6
2014-Sep-29 18:33N 53°32' E 005°18'2020.4
2014-Sep-29 17:33N 53°25' E 004°46'4720.2
2014-Sep-29 15:13N 52°44' E 004°05'3118.8
2014-Sep-29 13:34N 52°20' E 003°32'2019.5
2014-Sep-29 12:32N 52°01' E 003°23'1717.6
2014-Sep-29 11:33N 51°45' E 003°14'1414.4
2014-Sep-29 10:33N 51°31' E 003°06'8 8.4
2014-Sep-29 09:33N 51°25' E 003°14'1615.8
2014-Sep-29 08:33N 51°27' E 003°39'1211.7
2014-Sep-29 07:33N 51°25' E 003°58'1010.0
2014-Sep-29 06:34N 51°22' E 004°13'3 3.0
2014-Sep-29 05:34N 51°21' E 004°17'2 1.6
2014-Sep-29 04:33N 51°19' E 004°19'0 0.1
2014-Sep-29 03:33N 51°19' E 004°19'0 0.0
2014-Sep-29 02:30N 51°19' E 004°19'0 0.0
2014-Sep-29 01:32N 51°19' E 004°19'0 0.0
2014-Sep-29 00:29N 51°19' E 004°19'0 0.0
2014-Sep-28 23:31N 51°19' E 004°19'0 0.0
2014-Sep-28 22:28N 51°19' E 004°19'0 0.0
2014-Sep-28 21:33N 51°19' E 004°19'0 0.0
2014-Sep-28 20:33N 51°19' E 004°19'0 0.0
2014-Sep-28 19:33N 51°19' E 004°19'0 0.0
2014-Sep-28 18:32N 51°19' E 004°19'0 0.0
2014-Sep-28 17:29N 51°19' E 004°19'0 0.0
2014-Sep-28 16:31N 51°19' E 004°19'0 0.0
2014-Sep-28 15:31N 51°19' E 004°19'0 0.0
2014-Sep-28 14:33N 51°19' E 004°19'0 0.0
2014-Sep-28 13:33N 51°19' E 004°19'0 0.0
2014-Sep-28 12:28N 51°19' E 004°19'0 0.0
2014-Sep-28 11:33N 51°19' E 004°19'0 0.0
2014-Sep-28 10:33N 51°19' E 004°19'0 0.0
2014-Sep-28 09:33N 51°19' E 004°19'0 0.0
2014-Sep-28 08:32N 51°19' E 004°19'0 0.0
2014-Sep-28 07:32N 51°19' E 004°19'0 0.0
2014-Sep-28 06:31N 51°19' E 004°19'0 0.0
2014-Sep-28 05:31N 51°19' E 004°19'0 0.0
2014-Sep-28 04:30N 51°19' E 004°19'0 0.0
2014-Sep-28 03:33N 51°19' E 004°19'0 0.0
2014-Sep-28 02:33N 51°19' E 004°19'2 1.7
2014-Sep-28 01:34N 51°21' E 004°17'0 0.3
2014-Sep-28 00:34N 51°21' E 004°17'7 7.2
2014-Sep-27 23:33N 51°22' E 004°06'7 7.4
2014-Sep-27 22:33N 51°21' E 003°54'1110.8
2014-Sep-27 21:33N 51°26' E 003°38'1212.4
2014-Sep-27 20:33N 51°24' E 003°18'1515.0
2014-Sep-27 19:33N 51°25' E 002°54'9 9.1
2014-Sep-27 18:33N 51°27' E 002°40'2 1.8
2014-Sep-27 17:33N 51°27' E 002°37'7 7.1
2014-Sep-27 16:33N 51°22' E 002°30'7 7.1
2014-Sep-27 15:33N 51°19' E 002°20'8 8.3
2014-Sep-27 14:33N 51°14' E 002°09'1414.5
2014-Sep-27 13:33N 51°07' E 001°49'1515.5
2014-Sep-27 12:33N 50°56' E 001°32'1413.9
2014-Sep-27 11:33N 50°44' E 001°22'1413.5
2014-Sep-27 10:33N 50°35' E 001°06'1413.6
2014-Sep-27 09:33N 50°28' E 000°48'1414.3
2014-Sep-27 08:33N 50°23' E 000°27'4112.8
2014-Sep-27 05:20N 49°48' W 000°08'1114.4
2014-Sep-27 04:33N 49°37' W 000°11'1212.1
2014-Sep-27 03:34N 49°30' E 000°03'4 3.6
2014-Sep-27 02:32N 49°28' E 000°08'0 0.0
2014-Sep-27 01:28N 49°28' E 000°08'0 0.0
2014-Sep-27 00:31N 49°28' E 000°08'0 0.0
2014-Sep-26 23:30N 49°28' E 000°08'0 0.0
2014-Sep-26 22:30N 49°28' E 000°08'0 0.0
2014-Sep-26 21:29N 49°28' E 000°08'0 0.0
2014-Sep-26 20:29N 49°28' E 000°08'0 0.0
2014-Sep-26 19:32N 49°28' E 000°08'0 0.0
2014-Sep-26 18:28N 49°28' E 000°08'0 0.0
2014-Sep-26 17:28N 49°28' E 000°08'0 0.0
2014-Sep-26 16:33N 49°28' E 000°08'0 0.0
2014-Sep-26 15:33N 49°28' E 000°08'0 0.0
2014-Sep-26 14:32N 49°28' E 000°08'0 0.0
2014-Sep-26 13:32N 49°28' E 000°08'0 0.0
2014-Sep-26 12:31N 49°28' E 000°08'0 0.0
2014-Sep-26 11:31N 49°28' E 000°08'0 0.0
2014-Sep-26 10:31N 49°28' E 000°08'0 0.2
2014-Sep-26 09:33N 49°28' E 000°08'1010.5
2014-Sep-26 08:33N 49°31' W 000°07'8 8.2
2014-Sep-26 07:33N 49°39' W 000°11'6 5.9
2014-Sep-26 06:32N 49°45' W 000°10'10 8.1
2014-Sep-26 05:19N 49°55' W 000°11'3211.2
2014-Sep-26 02:29N 50°26' W 000°03'1414.0
2014-Sep-26 01:31N 50°32' E 000°17'1313.5
2014-Sep-26 00:33N 50°35' E 000°37'1312.5
2014-Sep-25 23:33N 50°42' E 000°53'1212.0
2014-Sep-25 22:33N 50°50' E 001°08'1413.5
2014-Sep-25 21:32N 50°59' E 001°24'1818.3
2014-Sep-25 20:34N 51°12' E 001°44'1918.9
2014-Sep-25 19:34N 51°28' E 001°59'1817.6
2014-Sep-25 18:34N 51°41' E 002°18'18615.3
2014-Sep-25 06:21N 54°25' E 004°45'22914.4
2014-Sep-24 14:30N 57°31' E 008°45'1314.1
2014-Sep-24 13:33N 57°39' E 009°05'1414.2
2014-Sep-24 12:33N 57°45' E 009°29'3414.0
2014-Sep-24 10:09N 57°50' E 010°31'913.2
2014-Sep-24 09:30N 57°48' E 010°47'1313.9
2014-Sep-24 08:33N 57°39' E 011°05'1413.9
2014-Sep-24 07:33N 57°29' E 011°24'1414.2
2014-Sep-24 06:34N 57°16' E 011°33'1414.3
2014-Sep-24 05:33N 57°03' E 011°43'1413.7
2014-Sep-24 04:30N 56°49' E 011°53'1313.1
2014-Sep-24 03:33N 56°39' E 011°40'12215.3
2014-Sep-23 19:33N 54°40' E 010°49'1717.1
2014-Sep-23 18:33N 54°34' E 011°17'1818.2
2014-Sep-23 17:34N 54°27' E 011°45'1616.2
2014-Sep-23 16:34N 54°29' E 012°13'1414.3
2014-Sep-23 15:33N 54°41' E 012°28'1919.3
2014-Sep-23 14:33N 54°51' E 012°57'1918.8
2014-Sep-23 13:33N 54°51' E 013°29'2019.8
2014-Sep-23 12:33N 54°43' E 014°01'4618.6
2014-Sep-23 10:06N 54°50' E 015°19'1119.9
2014-Sep-23 09:33N 54°54' E 015°36'10119.1
2014-Sep-23 04:16N 55°25' E 018°25'53 1.6
2014-Sep-21 18:18N 55°12' E 019°56'1520.9
2014-Sep-21 17:34N 55°02' E 019°37'2120.9
2014-Sep-21 16:34N 54°47' E 019°11'2020.2
2014-Sep-21 15:34N 54°32' E 018°48'10 9.8
2014-Sep-21 14:33N 54°33' E 018°31'0 0.0
2014-Sep-21 13:33N 54°33' E 018°31'0 0.0
2014-Sep-21 12:32N 54°33' E 018°31'0 0.0
2014-Sep-21 11:32N 54°33' E 018°31'0 0.0
2014-Sep-21 10:31N 54°33' E 018°31'0 0.0
2014-Sep-21 09:31N 54°33' E 018°31'0 0.0
2014-Sep-21 08:31N 54°33' E 018°31'0 0.0
2014-Sep-21 07:33N 54°33' E 018°31'0 0.0
2014-Sep-21 06:31N 54°33' E 018°31'0 0.0
2014-Sep-21 05:31N 54°33' E 018°31'0 0.0
2014-Sep-21 04:33N 54°33' E 018°31'0 0.0
2014-Sep-21 03:33N 54°33' E 018°31'0 0.0
2014-Sep-21 02:32N 54°33' E 018°31'0 0.1
2014-Sep-21 01:32N 54°33' E 018°31'0 0.1
2014-Sep-21 00:32N 54°33' E 018°31'0 0.0
2014-Sep-20 23:31N 54°33' E 018°31'0 0.0
2014-Sep-20 22:31N 54°33' E 018°31'0 0.0
2014-Sep-20 21:33N 54°33' E 018°31'0 0.0
2014-Sep-20 20:33N 54°33' E 018°31'0 0.0
2014-Sep-20 19:32N 54°33' E 018°31'  

Dump ship's entire track history